sensor_id;sensor_type;location;lat;lon;timestamp;pressure;altitude;pressure_sealevel;temperature;humidity
43503;BME280;29098;48.184;16.298;2022-10-16T00:01:20;99607.19;;;12.35;100.00
43503;BME280;29098;48.184;16.298;2022-10-16T00:03:46;99610.03;;;12.33;100.00
43503;BME280;29098;48.184;16.298;2022-10-16T00:06:11;99610.03;;;12.33;100.00
43503;BME280;29098;48.184;16.298;2022-10-16T00:08:37;99609.03;;;12.35;100.00
43503;BME280;29098;48.184;16.298;2022-10-16T00:11:04;99608.00;;;12.36;100.00
43503;BME280;29098;48.184;16.298;2022-10-16T00:13:30;99612.84;;;12.32;100.00
43503;BME280;29098;48.184;16.298;2022-10-16T00:15:56;99616.94;;;12.35;100.00
43503;BME280;29098;48.184;16.298;2022-10-16T00:18:22;99605.13;;;12.30;100.00
43503;BME280;29098;48.184;16.298;2022-10-16T00:20:47;99601.81;;;12.28;100.00
43503;BME280;29098;48.184;16.298;2022-10-16T00:23:12;99607.69;;;12.24;100.00
43503;BME280;29098;48.184;16.298;2022-10-16T00:25:38;99604.84;;;12.25;100.00
43503;BME280;29098;48.184;16.298;2022-10-16T00:28:03;99605.13;;;12.30;100.00
43503;BME280;29098;48.184;16.298;2022-10-16T00:30:28;99610.41;;;12.30;100.00
43503;BME280;29098;48.184;16.298;2022-10-16T00:32:54;99608.78;;;12.29;100.00
43503;BME280;29098;48.184;16.298;2022-10-16T00:35:19;99615.44;;;12.25;100.00
43503;BME280;29098;48.184;16.298;2022-10-16T00:37:44;99615.59;;;12.24;100.00
43503;BME280;29098;48.184;16.298;2022-10-16T00:40:10;99616.63;;;12.23;100.00
43503;BME280;29098;48.184;16.298;2022-10-16T00:42:35;99619.72;;;12.26;100.00
43503;BME280;29098;48.184;16.298;2022-10-16T00:45:01;99618.81;;;12.19;100.00
43503;BME280;29098;48.184;16.298;2022-10-16T00:49:52;99624.66;;;12.14;100.00
43503;BME280;29098;48.184;16.298;2022-10-16T00:52:18;99630.28;;;12.26;100.00
43503;BME280;29098;48.184;16.298;2022-10-16T00:54:44;99641.59;;;12.20;100.00
43503;BME280;29098;48.184;16.298;2022-10-16T00:57:11;99634.41;;;12.14;100.00
43503;BME280;29098;48.184;16.298;2022-10-16T00:59:37;99625.22;;;12.10;100.00
43503;BME280;29098;48.184;16.298;2022-10-16T01:02:04;99624.81;;;12.13;100.00
43503;BME280;29098;48.184;16.298;2022-10-16T01:04:34;99626.38;;;12.07;100.00
43503;BME280;29098;48.184;16.298;2022-10-16T01:12:14;99613.72;;;12.02;100.00
43503;BME280;29098;48.184;16.298;2022-10-16T01:14:45;99625.75;;;12.05;100.00
43503;BME280;29098;48.184;16.298;2022-10-16T01:17:17;99622.63;;;12.01;100.00
43503;BME280;29098;48.184;16.298;2022-10-16T01:22:09;99625.94;;;12.03;100.00
43503;BME280;29098;48.184;16.298;2022-10-16T01:24:43;99625.28;;;12.01;100.00
43503;BME280;29098;48.184;16.298;2022-10-16T01:27:14;99629.56;;;12.02;100.00
43503;BME280;29098;48.184;16.298;2022-10-16T01:37:15;99625.38;;;11.93;100.00
43503;BME280;29098;48.184;16.298;2022-10-16T01:39:45;99620.19;;;12.00;100.00
43503;BME280;29098;48.184;16.298;2022-10-16T01:42:30;99619.38;;;11.99;100.00
43503;BME280;29098;48.184;16.298;2022-10-16T01:44:58;99625.84;;;11.97;100.00
43503;BME280;29098;48.184;16.298;2022-10-16T01:47:25;99631.03;;;11.90;100.00
43503;BME280;29098;48.184;16.298;2022-10-16T01:49:52;99625.56;;;11.91;100.00
43503;BME280;29098;48.184;16.298;2022-10-16T01:52:19;99627.56;;;11.89;100.00
43503;BME280;29098;48.184;16.298;2022-10-16T01:54:47;99626.50;;;11.84;100.00
43503;BME280;29098;48.184;16.298;2022-10-16T01:57:14;99625.47;;;11.85;100.00
43503;BME280;29098;48.184;16.298;2022-10-16T01:59:45;99622.84;;;11.85;100.00
43503;BME280;29098;48.184;16.298;2022-10-16T02:02:11;99624.84;;;11.83;100.00
43503;BME280;29098;48.184;16.298;2022-10-16T02:04:39;99629.69;;;11.79;100.00
43503;BME280;29098;48.184;16.298;2022-10-16T02:07:07;99636.94;;;11.77;100.00
43503;BME280;29098;48.184;16.298;2022-10-16T02:09:33;99633.75;;;11.82;100.00
43503;BME280;29098;48.184;16.298;2022-10-16T02:11:59;99633.75;;;11.82;100.00
43503;BME280;29098;48.184;16.298;2022-10-16T02:14:27;99625.47;;;11.85;100.00
43503;BME280;29098;48.184;16.298;2022-10-16T02:16:53;99635.69;;;11.73;100.00
43503;BME280;29098;48.184;16.298;2022-10-16T02:19:18;99640.25;;;11.79;100.00
43503;BME280;29098;48.184;16.298;2022-10-16T02:21:54;99647.97;;;11.81;100.00
43503;BME280;29098;48.184;16.298;2022-10-16T02:29:28;99644.78;;;11.70;100.00
43503;BME280;29098;48.184;16.298;2022-10-16T02:31:55;99645.41;;;11.72;100.00
43503;BME280;29098;48.184;16.298;2022-10-16T02:34:23;99644.78;;;11.70;100.00
43503;BME280;29098;48.184;16.298;2022-10-16T02:36:50;99645.25;;;11.74;100.00
43503;BME280;29098;48.184;16.298;2022-10-16T02:39:15;99645.78;;;11.69;100.00
43503;BME280;29098;48.184;16.298;2022-10-16T02:41:41;99649.78;;;11.65;100.00
43503;BME280;29098;48.184;16.298;2022-10-16T02:44:07;99646.13;;;11.66;100.00
43503;BME280;29098;48.184;16.298;2022-10-16T02:46:32;99671.91;;;11.64;100.00
43503;BME280;29098;48.184;16.298;2022-10-16T02:48:57;99652.63;;;11.63;100.00
43503;BME280;29098;48.184;16.298;2022-10-16T02:51:23;99651.72;;;11.56;100.00
43503;BME280;29098;48.184;16.298;2022-10-16T02:53:48;99652.34;;;11.58;100.00
43503;BME280;29098;48.184;16.298;2022-10-16T02:56:13;99655.31;;;11.55;100.00
43503;BME280;29098;48.184;16.298;2022-10-16T02:58:38;99652.50;;;11.57;100.00
43503;BME280;29098;48.184;16.298;2022-10-16T03:01:04;99653.69;;;11.54;100.00
43503;BME280;29098;48.184;16.298;2022-10-16T03:03:29;99651.72;;;11.56;100.00
43503;BME280;29098;48.184;16.298;2022-10-16T03:05:54;99651.25;;;11.53;100.00
43503;BME280;29098;48.184;16.298;2022-10-16T03:08:19;99643.97;;;11.55;100.00
43503;BME280;29098;48.184;16.298;2022-10-16T03:10:48;99639.94;;;11.59;100.00
43503;BME280;29098;48.184;16.298;2022-10-16T03:13:13;99641.94;;;11.57;100.00
43503;BME280;29098;48.184;16.298;2022-10-16T03:15:39;99652.88;;;11.54;100.00
43503;BME280;29098;48.184;16.298;2022-10-16T03:18:04;99658.97;;;11.54;100.00
43503;BME280;29098;48.184;16.298;2022-10-16T03:20:29;99664.53;;;11.59;100.00
43503;BME280;29098;48.184;16.298;2022-10-16T03:22:54;99666.72;;;11.56;100.00
43503;BME280;29098;48.184;16.298;2022-10-16T03:25:20;99665.88;;;11.55;100.00
43503;BME280;29098;48.184;16.298;2022-10-16T03:27:45;99665.78;;;11.48;100.00
43503;BME280;29098;48.184;16.298;2022-10-16T03:30:10;99672.97;;;11.40;100.00
43503;BME280;29098;48.184;16.298;2022-10-16T03:32:35;99671.78;;;11.42;100.00
43503;BME280;29098;48.184;16.298;2022-10-16T03:35:01;99677.91;;;11.43;100.00
43503;BME280;29098;48.184;16.298;2022-10-16T03:37:26;99668.97;;;11.44;100.00
43503;BME280;29098;48.184;16.298;2022-10-16T03:39:52;99670.59;;;11.45;100.00
43503;BME280;29098;48.184;16.298;2022-10-16T03:42:17;99674.25;;;11.44;100.00
43503;BME280;29098;48.184;16.298;2022-10-16T03:44:42;99674.09;;;11.45;100.00
43503;BME280;29098;48.184;16.298;2022-10-16T03:47:07;99690.25;;;11.42;100.00
43503;BME280;29098;48.184;16.298;2022-10-16T03:49:33;99690.19;;;11.50;100.00
43503;BME280;29098;48.184;16.298;2022-10-16T03:51:58;99700.41;;;11.54;100.00
43503;BME280;29098;48.184;16.298;2022-10-16T03:54:23;99700.94;;;11.49;100.00
43503;BME280;29098;48.184;16.298;2022-10-16T03:56:48;99699.00;;;11.43;100.00
43503;BME280;29098;48.184;16.298;2022-10-16T03:59:14;99700.09;;;11.33;100.00
43503;BME280;29098;48.184;16.298;2022-10-16T04:01:40;99703.81;;;11.39;100.00
43503;BME280;29098;48.184;16.298;2022-10-16T04:04:05;99711.13;;;11.37;100.00
43503;BME280;29098;48.184;16.298;2022-10-16T04:06:30;99709.81;;;11.33;100.00
43503;BME280;29098;48.184;16.298;2022-10-16T04:08:56;99695.75;;;11.41;100.00
43503;BME280;29098;48.184;16.298;2022-10-16T04:11:21;99695.53;;;11.42;100.00
43503;BME280;29098;48.184;16.298;2022-10-16T04:13:46;99695.28;;;11.37;100.00
43503;BME280;29098;48.184;16.298;2022-10-16T04:16:12;99706.75;;;11.44;100.00
43503;BME280;29098;48.184;16.298;2022-10-16T04:18:37;99700.09;;;11.33;100.00
43503;BME280;29098;48.184;16.298;2022-10-16T04:21:03;99711.19;;;11.29;100.00
43503;BME280;29098;48.184;16.298;2022-10-16T04:23:29;99706.53;;;11.31;100.00
43503;BME280;29098;48.184;16.298;2022-10-16T04:25:54;99705.69;;;11.30;100.00
43503;BME280;29098;48.184;16.298;2022-10-16T04:28:19;99706.88;;;11.28;100.00
43503;BME280;29098;48.184;16.298;2022-10-16T04:30:45;99701.44;;;11.29;100.00
43503;BME280;29098;48.184;16.298;2022-10-16T04:33:10;99711.59;;;11.17;100.00
43503;BME280;29098;48.184;16.298;2022-10-16T04:35:36;99709.94;;;11.16;100.00
43503;BME280;29098;48.184;16.298;2022-10-16T04:38:01;99702.03;;;11.16;100.00
43503;BME280;29098;48.184;16.298;2022-10-16T04:40:26;99705.94;;;11.20;100.00
43503;BME280;29098;48.184;16.298;2022-10-16T04:42:52;99708.31;;;11.15;100.00
43503;BME280;29098;48.184;16.298;2022-10-16T04:45:17;99701.41;;;11.14;100.00
43503;BME280;29098;48.184;16.298;2022-10-16T04:47:42;99704.19;;;11.13;100.00
43503;BME280;29098;48.184;16.298;2022-10-16T04:50:08;99713.91;;;11.12;100.00
43503;BME280;29098;48.184;16.298;2022-10-16T04:52:33;99710.00;;;11.08;100.00
43503;BME280;29098;48.184;16.298;2022-10-16T04:54:58;99717.09;;;11.07;100.00
43503;BME280;29098;48.184;16.298;2022-10-16T04:57:27;99715.44;;;11.06;100.00
43503;BME280;29098;48.184;16.298;2022-10-16T04:59:52;99722.72;;;11.04;100.00
43503;BME280;29098;48.184;16.298;2022-10-16T05:02:17;99728.34;;;11.01;100.00
43503;BME280;29098;48.184;16.298;2022-10-16T05:04:43;99724.41;;;10.97;100.00
43503;BME280;29098;48.184;16.298;2022-10-16T05:07:08;99723.91;;;11.02;100.00
43503;BME280;29098;48.184;16.298;2022-10-16T05:09:33;99715.34;;;11.00;100.00
43503;BME280;29098;48.184;16.298;2022-10-16T05:11:59;99725.53;;;11.03;100.00
43503;BME280;29098;48.184;16.298;2022-10-16T05:14:24;99727.53;;;11.01;100.00
43503;BME280;29098;48.184;16.298;2022-10-16T05:16:49;99732.44;;;11.04;100.00
43503;BME280;29098;48.184;16.298;2022-10-16T05:19:14;99735.75;;;11.06;100.00
43503;BME280;29098;48.184;16.298;2022-10-16T05:21:40;99745.00;;;11.02;100.00
43503;BME280;29098;48.184;16.298;2022-10-16T05:24:05;99740.09;;;10.99;100.00
43503;BME280;29098;48.184;16.298;2022-10-16T05:26:30;99748.16;;;10.97;100.00
43503;BME280;29098;48.184;16.298;2022-10-16T05:28:55;99755.78;;;10.92;100.00
43503;BME280;29098;48.184;16.298;2022-10-16T05:31:21;99750.69;;;10.90;100.00
43503;BME280;29098;48.184;16.298;2022-10-16T05:33:46;99746.38;;;10.89;100.00
43503;BME280;29098;48.184;16.298;2022-10-16T05:36:11;99757.25;;;10.94;100.00
43503;BME280;29098;48.184;16.298;2022-10-16T05:38:37;99746.84;;;10.93;100.00
43503;BME280;29098;48.184;16.298;2022-10-16T05:41:06;99750.97;;;10.95;100.00
43503;BME280;29098;48.184;16.298;2022-10-16T05:43:31;99756.38;;;11.02;100.00
43503;BME280;29098;48.184;16.298;2022-10-16T05:45:57;99773.03;;;11.03;100.00
43503;BME280;29098;48.184;16.298;2022-10-16T05:48:22;99764.09;;;11.04;100.00
43503;BME280;29098;48.184;16.298;2022-10-16T05:50:48;99772.81;;;11.13;100.00
43503;BME280;29098;48.184;16.298;2022-10-16T05:53:13;99771.50;;;11.08;100.00
43503;BME280;29098;48.184;16.298;2022-10-16T05:55:38;99780.34;;;11.16;100.00
43503;BME280;29098;48.184;16.298;2022-10-16T05:58:04;99781.97;;;11.25;100.00
43503;BME280;29098;48.184;16.298;2022-10-16T06:00:29;99785.94;;;11.21;100.00
43503;BME280;29098;48.184;16.298;2022-10-16T06:02:54;99790.59;;;11.19;100.00
43503;BME280;29098;48.184;16.298;2022-10-16T06:05:19;99796.97;;;11.24;100.00
43503;BME280;29098;48.184;16.298;2022-10-16T06:07:45;99804.53;;;11.28;100.00
43503;BME280;29098;48.184;16.298;2022-10-16T06:10:10;99801.72;;;11.29;100.00
43503;BME280;29098;48.184;16.298;2022-10-16T06:12:35;99806.66;;;11.32;100.00
43503;BME280;29098;48.184;16.298;2022-10-16T06:15:00;99807.63;;;11.31;100.00
43503;BME280;29098;48.184;16.298;2022-10-16T06:17:25;99810.47;;;11.30;100.00
43503;BME280;29098;48.184;16.298;2022-10-16T06:19:51;99808.53;;;11.23;100.00
43503;BME280;29098;48.184;16.298;2022-10-16T06:22:16;99816.09;;;11.27;100.00
43503;BME280;29098;48.184;16.298;2022-10-16T06:24:41;99822.66;;;11.31;100.00
43503;BME280;29098;48.184;16.298;2022-10-16T06:27:06;99821.31;;;11.35;100.00
43503;BME280;29098;48.184;16.298;2022-10-16T06:29:32;99825.94;;;11.33;100.00
43503;BME280;29098;48.184;16.298;2022-10-16T06:31:57;99828.13;;;11.29;100.00
43503;BME280;29098;48.184;16.298;2022-10-16T06:34:22;99831.53;;;11.38;100.00
43503;BME280;29098;48.184;16.298;2022-10-16T06:36:47;99833.88;;;11.33;100.00
43503;BME280;29098;48.184;16.298;2022-10-16T06:39:13;99834.69;;;11.33;100.00
43503;BME280;29098;48.184;16.298;2022-10-16T06:41:38;99836.88;;;11.53;100.00
43503;BME280;29098;48.184;16.298;2022-10-16T06:44:06;99831.81;;;11.43;100.00
43503;BME280;29098;48.184;16.298;2022-10-16T06:46:32;99833.47;;;11.44;100.00
43503;BME280;29098;48.184;16.298;2022-10-16T06:48:58;99832.41;;;11.54;100.00
43503;BME280;29098;48.184;16.298;2022-10-16T06:51:24;99843.31;;;11.50;100.00
43503;BME280;29098;48.184;16.298;2022-10-16T06:53:50;99847.66;;;11.43;100.00
43503;BME280;29098;48.184;16.298;2022-10-16T06:56:17;99862.31;;;11.46;100.00
43503;BME280;29098;48.184;16.298;2022-10-16T06:58:43;99870.78;;;11.41;100.00
43503;BME280;29098;48.184;16.298;2022-10-16T07:01:09;99872.41;;;11.42;100.00
43503;BME280;29098;48.184;16.298;2022-10-16T07:03:38;99882.63;;;11.45;100.00
43503;BME280;29098;48.184;16.298;2022-10-16T07:06:04;99873.72;;;11.46;100.00
43503;BME280;29098;48.184;16.298;2022-10-16T07:08:36;99878.31;;;11.53;100.00
43503;BME280;29098;48.184;16.298;2022-10-16T07:11:03;99882.53;;;11.62;100.00
43503;BME280;29098;48.184;16.298;2022-10-16T07:13:29;99873.84;;;11.53;100.00
43503;BME280;29098;48.184;16.298;2022-10-16T07:15:54;99879.59;;;11.57;100.00
43503;BME280;29098;48.184;16.298;2022-10-16T07:18:19;99877.09;;;11.63;100.00
43503;BME280;29098;48.184;16.298;2022-10-16T07:20:45;99881.47;;;11.71;100.00
43503;BME280;29098;48.184;16.298;2022-10-16T07:23:10;99882.31;;;11.72;100.00
43503;BME280;29098;48.184;16.298;2022-10-16T07:25:36;99883.06;;;11.81;100.00
43503;BME280;29098;48.184;16.298;2022-10-16T07:28:01;99879.94;;;11.77;100.00
43503;BME280;29098;48.184;16.298;2022-10-16T07:30:26;99885.16;;;11.85;100.00
43503;BME280;29098;48.184;16.298;2022-10-16T07:32:51;99888.81;;;11.84;100.00
43503;BME280;29098;48.184;16.298;2022-10-16T07:35:17;99888.63;;;11.86;100.00
43503;BME280;29098;48.184;16.298;2022-10-16T07:37:45;99893.56;;;11.89;100.00
43503;BME280;29098;48.184;16.298;2022-10-16T07:40:10;99897.50;;;11.93;100.00
43503;BME280;29098;48.184;16.298;2022-10-16T07:42:36;99891.91;;;11.88;100.00
43503;BME280;29098;48.184;16.298;2022-10-16T07:45:01;99893.56;;;11.89;100.00
43503;BME280;29098;48.184;16.298;2022-10-16T07:47:27;99895.88;;;11.92;100.00
43503;BME280;29098;48.184;16.298;2022-10-16T07:49:52;99903.50;;;11.87;100.00
43503;BME280;29098;48.184;16.298;2022-10-16T07:52:17;99903.19;;;11.82;100.00
43503;BME280;29098;48.184;16.298;2022-10-16T07:54:42;99901.22;;;11.84;100.00
43503;BME280;29098;48.184;16.298;2022-10-16T07:57:08;99909.25;;;11.90;100.00
43503;BME280;29098;48.184;16.298;2022-10-16T07:59:33;99906.97;;;11.87;100.00
43503;BME280;29098;48.184;16.298;2022-10-16T08:01:58;99907.06;;;11.94;100.00
43503;BME280;29098;48.184;16.298;2022-10-16T08:04:23;99907.53;;;11.98;100.00
43503;BME280;29098;48.184;16.298;2022-10-16T08:06:49;99909.34;;;11.97;100.00
43503;BME280;29098;48.184;16.298;2022-10-16T08:09:14;99915.00;;;11.94;100.00
43503;BME280;29098;48.184;16.298;2022-10-16T08:11:40;99918.00;;;11.91;100.00
43503;BME280;29098;48.184;16.298;2022-10-16T08:14:05;99926.88;;;11.98;100.00
43503;BME280;29098;48.184;16.298;2022-10-16T08:16:30;99931.38;;;11.89;100.00
43503;BME280;29098;48.184;16.298;2022-10-16T08:18:56;99932.78;;;12.00;100.00
43503;BME280;29098;48.184;16.298;2022-10-16T08:21:21;99939.06;;;11.99;100.00
43503;BME280;29098;48.184;16.298;2022-10-16T08:23:48;99939.22;;;12.06;100.00
43503;BME280;29098;48.184;16.298;2022-10-16T08:26:13;99935.03;;;12.12;100.00
43503;BME280;29098;48.184;16.298;2022-10-16T08:28:38;99938.97;;;12.16;100.00
43503;BME280;29098;48.184;16.298;2022-10-16T08:31:11;99939.63;;;12.18;100.00
43503;BME280;29098;48.184;16.298;2022-10-16T08:33:37;99940.44;;;12.18;100.00
43503;BME280;29098;48.184;16.298;2022-10-16T08:36:03;99945.03;;;12.25;100.00
43503;BME280;29098;48.184;16.298;2022-10-16T08:38:28;99944.56;;;12.21;100.00
43503;BME280;29098;48.184;16.298;2022-10-16T08:40:54;99948.31;;;12.27;100.00
43503;BME280;29098;48.184;16.298;2022-10-16T08:51:07;99933.47;;;12.26;100.00
43503;BME280;29098;48.184;16.298;2022-10-16T08:56:18;99948.53;;;12.40;100.00
43503;BME280;29098;48.184;16.298;2022-10-16T08:58:43;99939.69;;;12.48;100.00
43503;BME280;29098;48.184;16.298;2022-10-16T09:01:11;99947.94;;;12.53;100.00
43503;BME280;29098;48.184;16.298;2022-10-16T09:11:21;99952.59;;;12.66;100.00
43503;BME280;29098;48.184;16.298;2022-10-16T09:13:57;99953.84;;;12.70;100.00
43503;BME280;29098;48.184;16.298;2022-10-16T09:16:30;99952.34;;;12.76;100.00
43503;BME280;29098;48.184;16.298;2022-10-16T09:21:36;99960.06;;;12.63;100.00
43503;BME280;29098;48.184;16.298;2022-10-16T09:24:10;99958.75;;;12.58;100.00
43503;BME280;29098;48.184;16.298;2022-10-16T09:26:36;99960.94;;;12.55;100.00
43503;BME280;29098;48.184;16.298;2022-10-16T09:29:02;99971.66;;;12.62;100.00
43503;BME280;29098;48.184;16.298;2022-10-16T09:31:27;99969.41;;;12.50;100.00
43503;BME280;29098;48.184;16.298;2022-10-16T09:33:57;99971.53;;;12.55;100.00
43503;BME280;29098;48.184;16.298;2022-10-16T09:36:23;99980.59;;;12.60;100.00
43503;BME280;29098;48.184;16.298;2022-10-16T09:38:50;99982.78;;;12.57;100.00
43503;BME280;29098;48.184;16.298;2022-10-16T09:41:26;99991.16;;;12.60;100.00
43503;BME280;29098;48.184;16.298;2022-10-16T09:43:53;99984.50;;;12.65;100.00
43503;BME280;29098;48.184;16.298;2022-10-16T09:46:27;99989.38;;;12.76;100.00
43503;BME280;29098;48.184;16.298;2022-10-16T09:48:56;99991.00;;;12.77;100.00
43503;BME280;29098;48.184;16.298;2022-10-16T09:51:23;99999.97;;;12.76;100.00
43503;BME280;29098;48.184;16.298;2022-10-16T09:53:49;99996.94;;;12.79;100.00
43503;BME280;29098;48.184;16.298;2022-10-16T09:56:23;99993.97;;;12.59;100.00
43503;BME280;29098;48.184;16.298;2022-10-16T09:58:50;99988.44;;;12.69;100.00
43503;BME280;29098;48.184;16.298;2022-10-16T10:01:16;99987.91;;;12.73;100.00
43503;BME280;29098;48.184;16.298;2022-10-16T10:03:42;99984.78;;;12.70;100.00
43503;BME280;29098;48.184;16.298;2022-10-16T10:06:28;99995.00;;;12.73;100.00
43503;BME280;29098;48.184;16.298;2022-10-16T10:08:58;99998.50;;;12.73;100.00
43503;BME280;29098;48.184;16.298;2022-10-16T10:11:44;99997.56;;;12.81;100.00
43503;BME280;29098;48.184;16.298;2022-10-16T10:14:20;99996.59;;;12.82;100.00
43503;BME280;29098;48.184;16.298;2022-10-16T10:16:46;99993.88;;;12.91;100.00
43503;BME280;29098;48.184;16.298;2022-10-16T10:19:16;99998.31;;;12.90;100.00
43503;BME280;29098;48.184;16.298;2022-10-16T10:21:41;99997.22;;;12.84;100.00
43503;BME280;29098;48.184;16.298;2022-10-16T10:24:11;100008.38;;;12.95;100.00
43503;BME280;29098;48.184;16.298;2022-10-16T10:26:36;99998.69;;;13.02;100.00
43503;BME280;29098;48.184;16.298;2022-10-16T10:34:35;100013.66;;;12.95;100.00
43503;BME280;29098;48.184;16.298;2022-10-16T10:37:05;100001.50;;;12.85;100.00
43503;BME280;29098;48.184;16.298;2022-10-16T10:39:48;100003.25;;;12.93;100.00
43503;BME280;29098;48.184;16.298;2022-10-16T10:42:19;100004.00;;;13.02;100.00
43503;BME280;29098;48.184;16.298;2022-10-16T10:45:06;100009.00;;;12.97;100.00
43503;BME280;29098;48.184;16.298;2022-10-16T10:50:07;99997.44;;;12.98;100.00
43503;BME280;29098;48.184;16.298;2022-10-16T10:58:16;99986.47;;;13.01;100.00
43503;BME280;29098;48.184;16.298;2022-10-16T11:06:00;99987.38;;;13.38;100.00
43503;BME280;29098;48.184;16.298;2022-10-16T11:11:13;99996.34;;;13.37;100.00
43503;BME280;29098;48.184;16.298;2022-10-16T11:16:23;99972.75;;;13.42;100.00
43503;BME280;29098;48.184;16.298;2022-10-16T11:21:29;99980.38;;;13.46;100.00
43503;BME280;29098;48.184;16.298;2022-10-16T11:24:04;99980.81;;;13.49;100.00
43503;BME280;29098;48.184;16.298;2022-10-16T11:26:35;99986.81;;;13.28;100.00
43503;BME280;29098;48.184;16.298;2022-10-16T11:29:04;99980.63;;;13.36;100.00
43503;BME280;29098;48.184;16.298;2022-10-16T11:31:37;99975.72;;;13.48;100.00
43503;BME280;29098;48.184;16.298;2022-10-16T11:36:45;99980.72;;;13.58;100.00
43503;BME280;29098;48.184;16.298;2022-10-16T11:39:25;99975.09;;;13.82;100.00
43503;BME280;29098;48.184;16.298;2022-10-16T11:41:56;99978.56;;;13.83;100.00
43503;BME280;29098;48.184;16.298;2022-10-16T11:50:02;99972.63;;;14.03;100.00
43503;BME280;29098;48.184;16.298;2022-10-16T11:52:36;99970.75;;;14.18;100.00
43503;BME280;29098;48.184;16.298;2022-10-16T11:57:32;99970.44;;;14.78;100.00
43503;BME280;29098;48.184;16.298;2022-10-16T12:00:00;99966.41;;;14.89;100.00
43503;BME280;29098;48.184;16.298;2022-10-16T12:07:27;99980.09;;;15.28;100.00
43503;BME280;29098;48.184;16.298;2022-10-16T12:09:58;99974.47;;;15.45;100.00
43503;BME280;29098;48.184;16.298;2022-10-16T12:15:18;99962.59;;;15.47;100.00
43503;BME280;29098;48.184;16.298;2022-10-16T12:17:43;99957.38;;;15.81;100.00
43503;BME280;29098;48.184;16.298;2022-10-16T12:22:40;99959.13;;;16.23;100.00
43503;BME280;29098;48.184;16.298;2022-10-16T12:25:17;99956.06;;;16.53;100.00
43503;BME280;29098;48.184;16.298;2022-10-16T12:27:44;99950.88;;;16.98;100.00
43503;BME280;29098;48.184;16.298;2022-10-16T12:30:14;99954.56;;;17.57;100.00
43503;BME280;29098;48.184;16.298;2022-10-16T12:32:45;99952.91;;;17.94;100.00
43503;BME280;29098;48.184;16.298;2022-10-16T12:35:25;99944.53;;;18.23;99.56
43503;BME280;29098;48.184;16.298;2022-10-16T12:37:51;99951.72;;;18.48;99.63
43503;BME280;29098;48.184;16.298;2022-10-16T12:40:28;99957.03;;;18.48;98.83
43503;BME280;29098;48.184;16.298;2022-10-16T12:42:54;99941.78;;;18.55;97.79
43503;BME280;29098;48.184;16.298;2022-10-16T12:47:52;99952.72;;;18.91;97.00
43503;BME280;29098;48.184;16.298;2022-10-16T12:50:35;99950.88;;;18.92;95.03
43503;BME280;29098;48.184;16.298;2022-10-16T12:53:01;99951.75;;;18.85;97.51
43503;BME280;29098;48.184;16.298;2022-10-16T12:55:27;99954.72;;;18.77;98.12
43503;BME280;29098;48.184;16.298;2022-10-16T13:00:32;99954.53;;;19.16;95.68
43503;BME280;29098;48.184;16.298;2022-10-16T13:03:08;99945.38;;;19.42;94.41
43503;BME280;29098;48.184;16.298;2022-10-16T13:11:00;99944.47;;;20.58;85.47
43503;BME280;29098;48.184;16.298;2022-10-16T13:21:02;99947.50;;;20.25;87.50
43503;BME280;29098;48.184;16.298;2022-10-16T13:23:56;99939.56;;;20.07;90.27
43503;BME280;29098;48.184;16.298;2022-10-16T13:26:23;99939.09;;;20.10;90.87
43503;BME280;29098;48.184;16.298;2022-10-16T13:28:52;99940.03;;;20.28;90.55
43503;BME280;29098;48.184;16.298;2022-10-16T13:31:23;99944.72;;;20.56;89.71
43503;BME280;29098;48.184;16.298;2022-10-16T13:33:50;99949.13;;;20.38;87.28
43503;BME280;29098;48.184;16.298;2022-10-16T13:36:20;99948.88;;;20.16;87.71
43503;BME280;29098;48.184;16.298;2022-10-16T13:38:46;99949.91;;;19.73;93.09
43503;BME280;29098;48.184;16.298;2022-10-16T13:41:16;99957.31;;;19.40;96.46
43503;BME280;29098;48.184;16.298;2022-10-16T13:43:45;99957.50;;;19.26;99.29
43503;BME280;29098;48.184;16.298;2022-10-16T13:46:13;99955.31;;;18.98;100.00
43503;BME280;29098;48.184;16.298;2022-10-16T13:48:39;99952.50;;;18.93;100.00
43503;BME280;29098;48.184;16.298;2022-10-16T13:51:17;99948.34;;;18.97;100.00
43503;BME280;29098;48.184;16.298;2022-10-16T13:53:42;99954.34;;;19.48;100.00
43503;BME280;29098;48.184;16.298;2022-10-16T13:56:12;99949.81;;;20.10;95.68
43503;BME280;29098;48.184;16.298;2022-10-16T13:58:38;99951.72;;;20.93;91.63
43503;BME280;29098;48.184;16.298;2022-10-16T14:01:05;99957.88;;;21.75;84.16
43503;BME280;29098;48.184;16.298;2022-10-16T14:03:30;99954.09;;;22.40;79.23
43503;BME280;29098;48.184;16.298;2022-10-16T14:05:57;99957.84;;;23.18;77.07
43503;BME280;29098;48.184;16.298;2022-10-16T14:08:24;99951.38;;;23.63;75.14
43503;BME280;29098;48.184;16.298;2022-10-16T14:10:51;99947.00;;;23.85;72.65
43503;BME280;29098;48.184;16.298;2022-10-16T14:13:19;99955.38;;;24.16;71.82
43503;BME280;29098;48.184;16.298;2022-10-16T14:15:47;99951.88;;;23.88;71.73
43503;BME280;29098;48.184;16.298;2022-10-16T14:18:19;99947.50;;;23.81;70.36
43503;BME280;29098;48.184;16.298;2022-10-16T14:20:45;99941.19;;;23.38;73.87
43503;BME280;29098;48.184;16.298;2022-10-16T14:23:23;99943.16;;;23.03;76.64
43503;BME280;29098;48.184;16.298;2022-10-16T14:25:53;99941.31;;;21.96;82.25
43503;BME280;29098;48.184;16.298;2022-10-16T14:28:19;99946.06;;;21.47;82.91
43503;BME280;29098;48.184;16.298;2022-10-16T14:30:49;99946.38;;;21.34;86.23